sensor_id;sensor_type;location;lat;lon;timestamp;temperature;humidity
44607;DHT22;30315;46.072;14.474;2023-05-15T00:01:34;14.50;96.80
44607;DHT22;30315;46.072;14.474;2023-05-15T00:04:01;14.50;96.80
44607;DHT22;30315;46.072;14.474;2023-05-15T00:06:28;14.50;96.80
44607;DHT22;30315;46.072;14.474;2023-05-15T00:08:55;14.50;96.80
44607;DHT22;30315;46.072;14.474;2023-05-15T00:11:22;14.50;97.00
44607;DHT22;30315;46.072;14.474;2023-05-15T00:13:49;14.50;97.10
44607;DHT22;30315;46.072;14.474;2023-05-15T00:16:16;14.50;97.10
44607;DHT22;30315;46.072;14.474;2023-05-15T00:18:43;14.50;97.10
44607;DHT22;30315;46.072;14.474;2023-05-15T00:21:10;14.50;97.10
44607;DHT22;30315;46.072;14.474;2023-05-15T00:23:37;14.50;97.10
44607;DHT22;30315;46.072;14.474;2023-05-15T00:26:04;14.50;97.10
44607;DHT22;30315;46.072;14.474;2023-05-15T00:28:31;14.50;97.20
44607;DHT22;30315;46.072;14.474;2023-05-15T00:30:58;14.50;97.20
44607;DHT22;30315;46.072;14.474;2023-05-15T00:33:25;14.50;97.10
44607;DHT22;30315;46.072;14.474;2023-05-15T00:35:52;14.50;97.10
44607;DHT22;30315;46.072;14.474;2023-05-15T00:38:19;14.50;97.40
44607;DHT22;30315;46.072;14.474;2023-05-15T00:40:46;14.50;97.10
44607;DHT22;30315;46.072;14.474;2023-05-15T00:43:14;14.50;97.00
44607;DHT22;30315;46.072;14.474;2023-05-15T00:45:42;14.50;96.90
44607;DHT22;30315;46.072;14.474;2023-05-15T00:48:22;14.40;96.80
44607;DHT22;30315;46.072;14.474;2023-05-15T00:50:51;14.50;97.00
44607;DHT22;30315;46.072;14.474;2023-05-15T00:53:18;14.40;97.10
44607;DHT22;30315;46.072;14.474;2023-05-15T00:55:45;14.50;97.20
44607;DHT22;30315;46.072;14.474;2023-05-15T00:58:14;14.50;97.30
44607;DHT22;30315;46.072;14.474;2023-05-15T01:00:44;14.50;97.30
44607;DHT22;30315;46.072;14.474;2023-05-15T01:03:12;14.50;97.20
44607;DHT22;30315;46.072;14.474;2023-05-15T01:05:39;14.40;97.20
44607;DHT22;30315;46.072;14.474;2023-05-15T01:10:52;14.50;97.30
44607;DHT22;30315;46.072;14.474;2023-05-15T01:13:21;14.40;97.30
44607;DHT22;30315;46.072;14.474;2023-05-15T01:15:48;14.40;97.40
44607;DHT22;30315;46.072;14.474;2023-05-15T01:18:15;14.40;97.40
44607;DHT22;30315;46.072;14.474;2023-05-15T01:29:58;14.50;97.00
44607;DHT22;30315;46.072;14.474;2023-05-15T01:32:11;14.40;97.10
44607;DHT22;30315;46.072;14.474;2023-05-15T01:34:47;14.40;97.40
44607;DHT22;30315;46.072;14.474;2023-05-15T01:37:22;14.40;97.40
44607;DHT22;30315;46.072;14.474;2023-05-15T01:39:54;14.40;97.40
44607;DHT22;30315;46.072;14.474;2023-05-15T01:42:27;14.40;97.50
44607;DHT22;30315;46.072;14.474;2023-05-15T01:44:56;14.40;97.20
44607;DHT22;30315;46.072;14.474;2023-05-15T01:47:35;14.40;97.30
44607;DHT22;30315;46.072;14.474;2023-05-15T01:50:05;14.30;97.10
44607;DHT22;30315;46.072;14.474;2023-05-15T01:52:34;14.40;97.20
44607;DHT22;30315;46.072;14.474;2023-05-15T01:55:02;14.30;97.30
44607;DHT22;30315;46.072;14.474;2023-05-15T01:57:30;14.40;97.30
44607;DHT22;30315;46.072;14.474;2023-05-15T01:59:58;14.30;97.40
44607;DHT22;30315;46.072;14.474;2023-05-15T02:02:27;14.30;97.50
44607;DHT22;30315;46.072;14.474;2023-05-15T02:04:55;14.30;97.50
44607;DHT22;30315;46.072;14.474;2023-05-15T02:07:23;14.20;97.50
44607;DHT22;30315;46.072;14.474;2023-05-15T02:09:51;14.30;97.60
44607;DHT22;30315;46.072;14.474;2023-05-15T02:12:19;14.30;97.60
44607;DHT22;30315;46.072;14.474;2023-05-15T02:14:48;14.20;97.60
44607;DHT22;30315;46.072;14.474;2023-05-15T02:17:18;14.30;97.60
44607;DHT22;30315;46.072;14.474;2023-05-15T02:22:35;14.20;98.00
44607;DHT22;30315;46.072;14.474;2023-05-15T02:25:02;14.30;98.00
44607;DHT22;30315;46.072;14.474;2023-05-15T02:27:46;14.30;98.00
44607;DHT22;30315;46.072;14.474;2023-05-15T02:30:43;14.30;98.10
44607;DHT22;30315;46.072;14.474;2023-05-15T02:33:21;14.20;98.00
44607;DHT22;30315;46.072;14.474;2023-05-15T02:36:00;14.30;98.00
44607;DHT22;30315;46.072;14.474;2023-05-15T02:38:43;14.20;98.00
44607;DHT22;30315;46.072;14.474;2023-05-15T02:41:13;14.20;98.00
44607;DHT22;30315;46.072;14.474;2023-05-15T02:43:41;14.20;98.00
44607;DHT22;30315;46.072;14.474;2023-05-15T02:46:10;14.20;98.00
44607;DHT22;30315;46.072;14.474;2023-05-15T02:48:40;14.20;98.10
44607;DHT22;30315;46.072;14.474;2023-05-15T02:51:07;14.20;98.10
44607;DHT22;30315;46.072;14.474;2023-05-15T02:53:43;14.20;97.90
44607;DHT22;30315;46.072;14.474;2023-05-15T02:56:11;14.20;98.10
44607;DHT22;30315;46.072;14.474;2023-05-15T02:58:38;14.20;98.00
44607;DHT22;30315;46.072;14.474;2023-05-15T03:01:05;14.20;98.10
44607;DHT22;30315;46.072;14.474;2023-05-15T03:03:32;14.20;98.00
44607;DHT22;30315;46.072;14.474;2023-05-15T03:05:59;14.10;98.00
44607;DHT22;30315;46.072;14.474;2023-05-15T03:08:27;14.10;97.90
44607;DHT22;30315;46.072;14.474;2023-05-15T03:10:55;14.20;97.90
44607;DHT22;30315;46.072;14.474;2023-05-15T03:13:21;14.10;97.70
44607;DHT22;30315;46.072;14.474;2023-05-15T03:15:48;14.10;97.80
44607;DHT22;30315;46.072;14.474;2023-05-15T03:18:15;14.10;97.80
44607;DHT22;30315;46.072;14.474;2023-05-15T03:20:46;14.10;97.80
44607;DHT22;30315;46.072;14.474;2023-05-15T03:23:13;14.10;97.90
44607;DHT22;30315;46.072;14.474;2023-05-15T03:25:40;14.10;97.90
44607;DHT22;30315;46.072;14.474;2023-05-15T03:28:07;14.10;97.90
44607;DHT22;30315;46.072;14.474;2023-05-15T03:30:34;14.10;97.90
44607;DHT22;30315;46.072;14.474;2023-05-15T03:33:01;14.10;97.90
44607;DHT22;30315;46.072;14.474;2023-05-15T03:35:29;14.10;97.90
44607;DHT22;30315;46.072;14.474;2023-05-15T03:37:58;14.10;98.00
44607;DHT22;30315;46.072;14.474;2023-05-15T03:40:25;14.10;98.00
44607;DHT22;30315;46.072;14.474;2023-05-15T03:42:52;14.10;98.00
44607;DHT22;30315;46.072;14.474;2023-05-15T03:45:19;14.10;98.10
44607;DHT22;30315;46.072;14.474;2023-05-15T03:47:47;14.10;98.10
44607;DHT22;30315;46.072;14.474;2023-05-15T03:50:14;14.10;98.00
44607;DHT22;30315;46.072;14.474;2023-05-15T03:52:42;14.10;97.90
44607;DHT22;30315;46.072;14.474;2023-05-15T03:55:09;14.10;97.90
44607;DHT22;30315;46.072;14.474;2023-05-15T03:57:36;14.10;97.70
44607;DHT22;30315;46.072;14.474;2023-05-15T04:00:03;14.10;97.80
44607;DHT22;30315;46.072;14.474;2023-05-15T04:02:40;14.10;98.00
44607;DHT22;30315;46.072;14.474;2023-05-15T04:05:07;14.10;98.00
44607;DHT22;30315;46.072;14.474;2023-05-15T04:07:36;14.10;98.00
44607;DHT22;30315;46.072;14.474;2023-05-15T04:10:04;14.20;98.10
44607;DHT22;30315;46.072;14.474;2023-05-15T04:12:32;14.20;97.90
44607;DHT22;30315;46.072;14.474;2023-05-15T04:15:19;14.20;97.90
44607;DHT22;30315;46.072;14.474;2023-05-15T04:17:49;14.20;98.00
44607;DHT22;30315;46.072;14.474;2023-05-15T04:20:18;14.20;97.90
44607;DHT22;30315;46.072;14.474;2023-05-15T04:22:46;14.20;97.70
44607;DHT22;30315;46.072;14.474;2023-05-15T04:25:13;14.20;97.70
44607;DHT22;30315;46.072;14.474;2023-05-15T04:27:42;14.20;97.70
44607;DHT22;30315;46.072;14.474;2023-05-15T04:30:10;14.20;97.80
44607;DHT22;30315;46.072;14.474;2023-05-15T04:32:38;14.10;97.90
44607;DHT22;30315;46.072;14.474;2023-05-15T04:35:07;14.20;98.00
44607;DHT22;30315;46.072;14.474;2023-05-15T04:37:40;14.20;98.10
44607;DHT22;30315;46.072;14.474;2023-05-15T04:40:08;14.20;97.90
44607;DHT22;30315;46.072;14.474;2023-05-15T04:42:35;14.20;97.90
44607;DHT22;30315;46.072;14.474;2023-05-15T04:45:06;14.20;98.00
44607;DHT22;30315;46.072;14.474;2023-05-15T04:47:33;14.20;98.00
44607;DHT22;30315;46.072;14.474;2023-05-15T04:50:00;14.30;98.20
44607;DHT22;30315;46.072;14.474;2023-05-15T04:52:27;14.30;98.10
44607;DHT22;30315;46.072;14.474;2023-05-15T04:54:55;14.30;98.10
44607;DHT22;30315;46.072;14.474;2023-05-15T04:57:22;14.30;98.10
44607;DHT22;30315;46.072;14.474;2023-05-15T04:59:50;14.30;98.10
44607;DHT22;30315;46.072;14.474;2023-05-15T05:02:21;14.40;98.00
44607;DHT22;30315;46.072;14.474;2023-05-15T05:04:49;14.40;97.90
44607;DHT22;30315;46.072;14.474;2023-05-15T05:07:16;14.40;97.60
44607;DHT22;30315;46.072;14.474;2023-05-15T05:09:44;14.40;97.60
44607;DHT22;30315;46.072;14.474;2023-05-15T05:12:11;14.40;97.70
44607;DHT22;30315;46.072;14.474;2023-05-15T05:14:38;14.50;97.70
44607;DHT22;30315;46.072;14.474;2023-05-15T05:17:08;14.50;97.80
44607;DHT22;30315;46.072;14.474;2023-05-15T05:19:35;14.50;97.70
44607;DHT22;30315;46.072;14.474;2023-05-15T05:22:05;14.50;97.50
44607;DHT22;30315;46.072;14.474;2023-05-15T05:24:33;14.50;97.60
44607;DHT22;30315;46.072;14.474;2023-05-15T05:27:04;14.60;97.60
44607;DHT22;30315;46.072;14.474;2023-05-15T05:29:32;14.60;97.50
44607;DHT22;30315;46.072;14.474;2023-05-15T05:31:59;14.60;97.50
44607;DHT22;30315;46.072;14.474;2023-05-15T05:34:27;14.70;97.50
44607;DHT22;30315;46.072;14.474;2023-05-15T05:36:54;14.70;97.40
44607;DHT22;30315;46.072;14.474;2023-05-15T05:39:21;14.70;97.30
44607;DHT22;30315;46.072;14.474;2023-05-15T05:41:48;14.70;97.30
44607;DHT22;30315;46.072;14.474;2023-05-15T05:44:16;14.70;97.40
44607;DHT22;30315;46.072;14.474;2023-05-15T05:46:43;14.80;97.50
44607;DHT22;30315;46.072;14.474;2023-05-15T05:49:11;14.80;97.40
44607;DHT22;30315;46.072;14.474;2023-05-15T05:51:38;14.90;97.40
44607;DHT22;30315;46.072;14.474;2023-05-15T05:54:05;15.00;97.40
44607;DHT22;30315;46.072;14.474;2023-05-15T05:56:32;15.00;97.10
44607;DHT22;30315;46.072;14.474;2023-05-15T05:58:59;15.10;97.00
44607;DHT22;30315;46.072;14.474;2023-05-15T06:01:28;15.10;96.70
44607;DHT22;30315;46.072;14.474;2023-05-15T06:03:55;15.10;96.70
44607;DHT22;30315;46.072;14.474;2023-05-15T06:06:22;15.20;96.50
44607;DHT22;30315;46.072;14.474;2023-05-15T06:08:49;15.20;96.10
44607;DHT22;30315;46.072;14.474;2023-05-15T06:11:16;15.20;96.00
44607;DHT22;30315;46.072;14.474;2023-05-15T06:13:43;15.20;96.00
44607;DHT22;30315;46.072;14.474;2023-05-15T06:16:10;15.30;95.80
44607;DHT22;30315;46.072;14.474;2023-05-15T06:18:37;15.40;95.90
44607;DHT22;30315;46.072;14.474;2023-05-15T06:21:04;15.40;95.90
44607;DHT22;30315;46.072;14.474;2023-05-15T06:23:31;15.50;96.10
44607;DHT22;30315;46.072;14.474;2023-05-15T06:25:58;15.50;95.50
44607;DHT22;30315;46.072;14.474;2023-05-15T06:28:27;15.50;95.30
44607;DHT22;30315;46.072;14.474;2023-05-15T06:30:54;15.60;95.10
44607;DHT22;30315;46.072;14.474;2023-05-15T06:33:21;15.60;94.60
44607;DHT22;30315;46.072;14.474;2023-05-15T06:35:49;15.60;94.40
44607;DHT22;30315;46.072;14.474;2023-05-15T06:38:16;15.70;94.40
44607;DHT22;30315;46.072;14.474;2023-05-15T06:40:43;15.70;94.40
44607;DHT22;30315;46.072;14.474;2023-05-15T06:43:10;15.70;94.30
44607;DHT22;30315;46.072;14.474;2023-05-15T06:45:37;15.70;94.00
44607;DHT22;30315;46.072;14.474;2023-05-15T06:48:04;15.70;93.40
44607;DHT22;30315;46.072;14.474;2023-05-15T06:50:32;15.80;93.60
44607;DHT22;30315;46.072;14.474;2023-05-15T06:52:59;15.80;93.50
44607;DHT22;30315;46.072;14.474;2023-05-15T06:55:27;15.80;93.70
44607;DHT22;30315;46.072;14.474;2023-05-15T06:57:54;15.90;94.20
44607;DHT22;30315;46.072;14.474;2023-05-15T07:00:21;15.90;94.00
44607;DHT22;30315;46.072;14.474;2023-05-15T07:02:48;15.90;94.00
44607;DHT22;30315;46.072;14.474;2023-05-15T07:05:15;16.00;94.00
44607;DHT22;30315;46.072;14.474;2023-05-15T07:07:42;16.00;93.80
44607;DHT22;30315;46.072;14.474;2023-05-15T07:10:10;16.00;93.60
44607;DHT22;30315;46.072;14.474;2023-05-15T07:12:37;16.00;93.70
44607;DHT22;30315;46.072;14.474;2023-05-15T07:15:07;16.00;93.70
44607;DHT22;30315;46.072;14.474;2023-05-15T07:17:34;16.10;93.60
44607;DHT22;30315;46.072;14.474;2023-05-15T07:20:02;16.10;93.40
44607;DHT22;30315;46.072;14.474;2023-05-15T07:22:31;16.10;93.20
44607;DHT22;30315;46.072;14.474;2023-05-15T07:25:07;16.20;93.20
44607;DHT22;30315;46.072;14.474;2023-05-15T07:27:34;16.20;93.40
44607;DHT22;30315;46.072;14.474;2023-05-15T07:30:02;16.20;93.20
44607;DHT22;30315;46.072;14.474;2023-05-15T07:32:30;16.20;92.80
44607;DHT22;30315;46.072;14.474;2023-05-15T07:34:57;16.20;92.50
44607;DHT22;30315;46.072;14.474;2023-05-15T07:37:24;16.20;92.60
44607;DHT22;30315;46.072;14.474;2023-05-15T07:39:51;16.20;92.70
44607;DHT22;30315;46.072;14.474;2023-05-15T07:42:18;16.20;93.00
44607;DHT22;30315;46.072;14.474;2023-05-15T07:44:45;16.30;93.20
44607;DHT22;30315;46.072;14.474;2023-05-15T07:47:15;16.40;93.30
44607;DHT22;30315;46.072;14.474;2023-05-15T07:49:42;16.50;93.40
44607;DHT22;30315;46.072;14.474;2023-05-15T07:52:09;16.50;93.40
44607;DHT22;30315;46.072;14.474;2023-05-15T07:54:37;16.50;93.30
44607;DHT22;30315;46.072;14.474;2023-05-15T07:57:05;16.50;93.20
44607;DHT22;30315;46.072;14.474;2023-05-15T07:59:32;16.60;93.30
44607;DHT22;30315;46.072;14.474;2023-05-15T08:01:59;16.70;93.30
44607;DHT22;30315;46.072;14.474;2023-05-15T08:04:26;16.70;93.20
44607;DHT22;30315;46.072;14.474;2023-05-15T08:06:53;16.80;93.10
44607;DHT22;30315;46.072;14.474;2023-05-15T08:09:20;16.80;93.20
44607;DHT22;30315;46.072;14.474;2023-05-15T08:11:47;16.90;93.30
44607;DHT22;30315;46.072;14.474;2023-05-15T08:14:14;17.00;93.40
44607;DHT22;30315;46.072;14.474;2023-05-15T08:16:41;17.10;93.30
44607;DHT22;30315;46.072;14.474;2023-05-15T08:19:08;17.20;93.20
44607;DHT22;30315;46.072;14.474;2023-05-15T08:21:36;17.30;93.00
44607;DHT22;30315;46.072;14.474;2023-05-15T08:24:03;17.30;92.80
44607;DHT22;30315;46.072;14.474;2023-05-15T08:26:30;17.30;92.50
44607;DHT22;30315;46.072;14.474;2023-05-15T08:28:57;17.30;92.30
44607;DHT22;30315;46.072;14.474;2023-05-15T08:31:24;17.40;91.70
44607;DHT22;30315;46.072;14.474;2023-05-15T08:33:51;17.40;91.60
44607;DHT22;30315;46.072;14.474;2023-05-15T08:36:18;17.40;91.50
44607;DHT22;30315;46.072;14.474;2023-05-15T08:38:45;17.40;91.10
44607;DHT22;30315;46.072;14.474;2023-05-15T08:41:24;17.50;91.00
44607;DHT22;30315;46.072;14.474;2023-05-15T08:44:08;17.40;90.80
44607;DHT22;30315;46.072;14.474;2023-05-15T08:46:35;17.50;90.30
44607;DHT22;30315;46.072;14.474;2023-05-15T08:51:52;17.50;89.30
44607;DHT22;30315;46.072;14.474;2023-05-15T08:54:19;17.50;89.40
44607;DHT22;30315;46.072;14.474;2023-05-15T08:56:46;17.60;89.50
44607;DHT22;30315;46.072;14.474;2023-05-15T08:59:13;17.50;88.40
44607;DHT22;30315;46.072;14.474;2023-05-15T09:01:40;17.60;88.90
44607;DHT22;30315;46.072;14.474;2023-05-15T09:04:13;17.60;89.00
44607;DHT22;30315;46.072;14.474;2023-05-15T09:06:40;17.60;89.20
44607;DHT22;30315;46.072;14.474;2023-05-15T09:09:08;17.70;89.40
44607;DHT22;30315;46.072;14.474;2023-05-15T09:11:43;17.80;89.60
44607;DHT22;30315;46.072;14.474;2023-05-15T09:14:11;17.80;89.50
44607;DHT22;30315;46.072;14.474;2023-05-15T09:16:38;17.80;88.60
44607;DHT22;30315;46.072;14.474;2023-05-15T09:19:18;17.80;87.30
44607;DHT22;30315;46.072;14.474;2023-05-15T09:21:49;17.90;87.50
44607;DHT22;30315;46.072;14.474;2023-05-15T09:24:20;18.00;87.80
44607;DHT22;30315;46.072;14.474;2023-05-15T09:27:14;18.00;87.40
44607;DHT22;30315;46.072;14.474;2023-05-15T09:29:42;18.00;86.40
44607;DHT22;30315;46.072;14.474;2023-05-15T09:32:11;18.00;86.20
44607;DHT22;30315;46.072;14.474;2023-05-15T09:34:43;18.10;86.20
44607;DHT22;30315;46.072;14.474;2023-05-15T09:37:28;18.00;86.00
44607;DHT22;30315;46.072;14.474;2023-05-15T09:40:09;18.00;85.70
44607;DHT22;30315;46.072;14.474;2023-05-15T09:42:37;18.00;85.60
44607;DHT22;30315;46.072;14.474;2023-05-15T09:45:04;18.00;85.30
44607;DHT22;30315;46.072;14.474;2023-05-15T09:47:32;18.00;85.40
44607;DHT22;30315;46.072;14.474;2023-05-15T09:50:00;18.00;84.90
44607;DHT22;30315;46.072;14.474;2023-05-15T09:52:27;18.10;84.90
44607;DHT22;30315;46.072;14.474;2023-05-15T09:54:56;18.20;85.70
44607;DHT22;30315;46.072;14.474;2023-05-15T09:57:23;18.20;85.10
44607;DHT22;30315;46.072;14.474;2023-05-15T09:59:52;18.30;84.60
44607;DHT22;30315;46.072;14.474;2023-05-15T10:02:27;18.20;82.60
44607;DHT22;30315;46.072;14.474;2023-05-15T10:04:58;18.30;83.20
44607;DHT22;30315;46.072;14.474;2023-05-15T10:07:35;18.30;82.60
44607;DHT22;30315;46.072;14.474;2023-05-15T10:10:03;18.40;82.60
44607;DHT22;30315;46.072;14.474;2023-05-15T10:12:31;18.40;82.90
44607;DHT22;30315;46.072;14.474;2023-05-15T10:14:59;18.50;83.00
44607;DHT22;30315;46.072;14.474;2023-05-15T10:17:27;18.50;81.60
44607;DHT22;30315;46.072;14.474;2023-05-15T10:19:58;18.60;82.20
44607;DHT22;30315;46.072;14.474;2023-05-15T10:22:31;18.70;82.40
44607;DHT22;30315;46.072;14.474;2023-05-15T10:25:32;18.80;82.10
44607;DHT22;30315;46.072;14.474;2023-05-15T10:27:59;18.90;81.50
44607;DHT22;30315;46.072;14.474;2023-05-15T10:30:27;18.90;78.00
44607;DHT22;30315;46.072;14.474;2023-05-15T10:32:55;19.00;79.40
44607;DHT22;30315;46.072;14.474;2023-05-15T10:35:24;19.10;80.60
44607;DHT22;30315;46.072;14.474;2023-05-15T10:37:52;19.20;81.70
44607;DHT22;30315;46.072;14.474;2023-05-15T10:40:20;19.30;79.40
44607;DHT22;30315;46.072;14.474;2023-05-15T10:42:47;19.40;79.90
44607;DHT22;30315;46.072;14.474;2023-05-15T10:45:15;19.40;79.40
44607;DHT22;30315;46.072;14.474;2023-05-15T10:47:42;19.50;79.40
44607;DHT22;30315;46.072;14.474;2023-05-15T10:50:11;19.70;79.50
44607;DHT22;30315;46.072;14.474;2023-05-15T10:52:40;19.70;79.60
44607;DHT22;30315;46.072;14.474;2023-05-15T10:55:15;19.80;79.20
44607;DHT22;30315;46.072;14.474;2023-05-15T10:57:46;20.00;79.90
44607;DHT22;30315;46.072;14.474;2023-05-15T11:02:50;20.30;81.40
44607;DHT22;30315;46.072;14.474;2023-05-15T11:05:23;20.40;80.40
44607;DHT22;30315;46.072;14.474;2023-05-15T11:10:47;20.70;78.40
44607;DHT22;30315;46.072;14.474;2023-05-15T11:13:14;20.80;77.90
44607;DHT22;30315;46.072;14.474;2023-05-15T11:15:42;20.90;76.90
44607;DHT22;30315;46.072;14.474;2023-05-15T11:18:10;21.00;75.30
44607;DHT22;30315;46.072;14.474;2023-05-15T11:20:39;21.00;73.30
44607;DHT22;30315;46.072;14.474;2023-05-15T11:23:06;21.10;73.10
44607;DHT22;30315;46.072;14.474;2023-05-15T11:25:34;21.20;72.90
44607;DHT22;30315;46.072;14.474;2023-05-15T11:28:03;21.30;73.20
44607;DHT22;30315;46.072;14.474;2023-05-15T11:30:35;21.40;74.70
44607;DHT22;30315;46.072;14.474;2023-05-15T11:33:08;21.50;73.00
44607;DHT22;30315;46.072;14.474;2023-05-15T11:35:36;21.60;72.60
44607;DHT22;30315;46.072;14.474;2023-05-15T11:40:52;21.70;71.40
44607;DHT22;30315;46.072;14.474;2023-05-15T11:43:26;21.80;71.30
44607;DHT22;30315;46.072;14.474;2023-05-15T11:48:30;22.00;70.60
44607;DHT22;30315;46.072;14.474;2023-05-15T11:50:57;22.10;69.50
44607;DHT22;30315;46.072;14.474;2023-05-15T11:53:28;22.30;68.20
44607;DHT22;30315;46.072;14.474;2023-05-15T11:55:55;22.30;66.00
44607;DHT22;30315;46.072;14.474;2023-05-15T11:58:24;22.40;65.90
44607;DHT22;30315;46.072;14.474;2023-05-15T12:00:52;22.40;64.10
44607;DHT22;30315;46.072;14.474;2023-05-15T12:03:23;22.60;63.20
44607;DHT22;30315;46.072;14.474;2023-05-15T12:05:51;22.60;62.50
44607;DHT22;30315;46.072;14.474;2023-05-15T12:08:29;22.60;62.60
44607;DHT22;30315;46.072;14.474;2023-05-15T12:10:58;22.70;62.70
44607;DHT22;30315;46.072;14.474;2023-05-15T12:13:26;22.80;63.50
44607;DHT22;30315;46.072;14.474;2023-05-15T12:15:54;22.90;62.50
44607;DHT22;30315;46.072;14.474;2023-05-15T12:18:22;23.10;62.30
44607;DHT22;30315;46.072;14.474;2023-05-15T12:20:51;23.20;61.70
44607;DHT22;30315;46.072;14.474;2023-05-15T12:23:20;23.30;60.50
44607;DHT22;30315;46.072;14.474;2023-05-15T12:25:49;23.50;60.00
44607;DHT22;30315;46.072;14.474;2023-05-15T12:28:16;23.50;59.00
44607;DHT22;30315;46.072;14.474;2023-05-15T12:30:44;23.60;58.90
44607;DHT22;30315;46.072;14.474;2023-05-15T12:33:11;23.60;58.80
44607;DHT22;30315;46.072;14.474;2023-05-15T12:35:43;23.60;58.60
44607;DHT22;30315;46.072;14.474;2023-05-15T12:38:14;23.60;59.00
44607;DHT22;30315;46.072;14.474;2023-05-15T12:40:43;23.80;58.80
44607;DHT22;30315;46.072;14.474;2023-05-15T12:43:12;24.00;58.70
44607;DHT22;30315;46.072;14.474;2023-05-15T12:45:40;24.00;58.60
44607;DHT22;30315;46.072;14.474;2023-05-15T12:48:15;24.20;58.70
44607;DHT22;30315;46.072;14.474;2023-05-15T12:50:43;24.20;58.00
44607;DHT22;30315;46.072;14.474;2023-05-15T12:53:13;24.30;57.60
44607;DHT22;30315;46.072;14.474;2023-05-15T12:55:44;24.30;57.60
44607;DHT22;30315;46.072;14.474;2023-05-15T12:58:12;24.40;57.10
44607;DHT22;30315;46.072;14.474;2023-05-15T13:00:43;24.50;57.10
44607;DHT22;30315;46.072;14.474;2023-05-15T13:03:12;24.60;57.70
44607;DHT22;30315;46.072;14.474;2023-05-15T13:05:44;24.80;57.20
44607;DHT22;30315;46.072;14.474;2023-05-15T13:08:16;25.00;57.30
44607;DHT22;30315;46.072;14.474;2023-05-15T13:10:44;25.20;57.20
44607;DHT22;30315;46.072;14.474;2023-05-15T13:13:12;25.20;55.70
44607;DHT22;30315;46.072;14.474;2023-05-15T13:15:42;25.20;56.10
44607;DHT22;30315;46.072;14.474;2023-05-15T13:18:10;25.30;56.10
44607;DHT22;30315;46.072;14.474;2023-05-15T13:20:42;25.10;55.90
44607;DHT22;30315;46.072;14.474;2023-05-15T13:23:10;25.10;56.10
44607;DHT22;30315;46.072;14.474;2023-05-15T13:25:37;24.90;55.90
44607;DHT22;30315;46.072;14.474;2023-05-15T13:28:06;24.80;56.20
44607;DHT22;30315;46.072;14.474;2023-05-15T13:30:34;24.80;55.30
44607;DHT22;30315;46.072;14.474;2023-05-15T13:33:01;24.60;53.60
44607;DHT22;30315;46.072;14.474;2023-05-15T13:35:28;24.40;52.90
44607;DHT22;30315;46.072;14.474;2023-05-15T13:37:55;24.30;53.20
44607;DHT22;30315;46.072;14.474;2023-05-15T13:40:23;24.20;53.20
44607;DHT22;30315;46.072;14.474;2023-05-15T13:42:50;24.20;53.40
44607;DHT22;30315;46.072;14.474;2023-05-15T13:45:17;24.00;53.40
44607;DHT22;30315;46.072;14.474;2023-05-15T13:47:44;24.10;53.50
44607;DHT22;30315;46.072;14.474;2023-05-15T13:50:13;24.00;53.40
44607;DHT22;30315;46.072;14.474;2023-05-15T13:52:43;23.90;53.20
44607;DHT22;30315;46.072;14.474;2023-05-15T13:55:10;23.90;53.10
44607;DHT22;30315;46.072;14.474;2023-05-15T13:57:38;23.80;52.60
44607;DHT22;30315;46.072;14.474;2023-05-15T14:00:07;23.80;52.70
44607;DHT22;30315;46.072;14.474;2023-05-15T14:02:43;23.70;52.00
44607;DHT22;30315;46.072;14.474;2023-05-15T14:05:21;23.70;52.60
44607;DHT22;30315;46.072;14.474;2023-05-15T14:07:51;23.70;53.40
44607;DHT22;30315;46.072;14.474;2023-05-15T14:10:18;23.60;54.00
44607;DHT22;30315;46.072;14.474;2023-05-15T14:12:45;23.80;55.00
44607;DHT22;30315;46.072;14.474;2023-05-15T14:15:12;23.80;55.20
44607;DHT22;30315;46.072;14.474;2023-05-15T14:17:39;23.90;55.40
44607;DHT22;30315;46.072;14.474;2023-05-15T14:20:07;23.90;54.60
44607;DHT22;30315;46.072;14.474;2023-05-15T14:22:36;23.90;54.60
44607;DHT22;30315;46.072;14.474;2023-05-15T14:25:04;23.90;55.70
44607;DHT22;30315;46.072;14.474;2023-05-15T14:27:31;23.90;56.70
44607;DHT22;30315;46.072;14.474;2023-05-15T14:29:59;23.90;57.70
44607;DHT22;30315;46.072;14.474;2023-05-15T14:32:26;23.70;57.90
44607;DHT22;30315;46.072;14.474;2023-05-15T14:34:54;23.70;58.60
44607;DHT22;30315;46.072;14.474;2023-05-15T14:37:25;23.60;59.00
44607;DHT22;30315;46.072;14.474;2023-05-15T14:39:53;23.60;59.00
44607;DHT22;30315;46.072;14.474;2023-05-15T14:42:20;23.60;59.00
44607;DHT22;30315;46.072;14.474;2023-05-15T14:44:47;23.60;59.40
44607;DHT22;30315;46.072;14.474;2023-05-15T14:47:15;23.50;58.40
44607;DHT22;30315;46.072;14.474;2023-05-15T14:49:42;23.50;58.50
44607;DHT22;30315;46.072;14.474;2023-05-15T14:52:09;23.50;58.60
44607;DHT22;30315;46.072;14.474;2023-05-15T14:54:38;23.50;59.20
44607;DHT22;30315;46.072;14.474;2023-05-15T14:57:05;23.70;60.10
44607;DHT22;30315;46.072;14.474;2023-05-15T14:59:33;23.80;60.60
44607;DHT22;30315;46.072;14.474;2023-05-15T15:02:00;24.00;59.90
44607;DHT22;30315;46.072;14.474;2023-05-15T15:04:29;24.10;59.90
44607;DHT22;30315;46.072;14.474;2023-05-15T15:07:02;24.30;58.30
44607;DHT22;30315;46.072;14.474;2023-05-15T15:09:30;24.40;56.50
44607;DHT22;30315;46.072;14.474;2023-05-15T15:11:57;24.40;56.20
44607;DHT22;30315;46.072;14.474;2023-05-15T15:14:24;24.40;56.00
44607;DHT22;30315;46.072;14.474;2023-05-15T15:16:51;24.40;56.20
44607;DHT22;30315;46.072;14.474;2023-05-15T15:19:19;24.30;55.90
44607;DHT22;30315;46.072;14.474;2023-05-15T15:21:46;24.30;56.00
44607;DHT22;30315;46.072;14.474;2023-05-15T15:24:14;24.20;55.80
44607;DHT22;30315;46.072;14.474;2023-05-15T15:26:41;24.20;55.90
44607;DHT22;30315;46.072;14.474;2023-05-15T15:29:09;24.10;55.70
44607;DHT22;30315;46.072;14.474;2023-05-15T15:31:36;24.00;54.70
44607;DHT22;30315;46.072;14.474;2023-05-15T15:34:03;24.00;53.90
44607;DHT22;30315;46.072;14.474;2023-05-15T15:36:31;24.00;53.90
44607;DHT22;30315;46.072;14.474;2023-05-15T15:39:02;23.90;53.60
44607;DHT22;30315;46.072;14.474;2023-05-15T15:41:32;24.00;53.70
44607;DHT22;30315;46.072;14.474;2023-05-15T15:44:03;23.50;53.30
44607;DHT22;30315;46.072;14.474;2023-05-15T15:46:30;24.00;52.50
44607;DHT22;30315;46.072;14.474;2023-05-15T15:48:57;24.00;52.10
44607;DHT22;30315;46.072;14.474;2023-05-15T15:51:24;24.20;52.60
44607;DHT22;30315;46.072;14.474;2023-05-15T15:53:51;24.20;52.50